KGAG/GAG METAR and TAF weather

Enter ICAO airport designator
Station Type Date Time Source
KGAG METAR 2021/05/13 04:53 UTC NOAA

KGAG 130453Z AUTO 10003KT 10SM CLR 08/06 A3036 RMK AO2 SLP277 T00830061


Station Type Date Time Source
KGAG Decoded METAR 2021/05/13 04:53 UTC NOAA

GAGE AIRPORT, OK, United States (KGAG) 36-18N 99-46W 668M
May 13, 2021 - 12:53 AM EDT / 2021.05.13 0453 UTC
Wind: from the E (100 degrees) at 3 MPH (3 KT):0
Visibility: 10 mile(s):0
Sky conditions: clear
Temperature: 46.9 F (8.3 C)
Dew Point: 43.0 F (6.1 C)
Relative Humidity: 86%
Pressure (altimeter): 30.36 in. Hg (1028 hPa)
ob: KGAG 130453Z AUTO 10003KT 10SM CLR 08/06 A3036 RMK AO2 SLP277 T00830061
cycle: 5

Station Type Date Time Source
KGAG TAF 2018/03/21 06:22 UTC NOAA

TAF KGAG 210520Z 2106/2206 VRB04KT P6SM SCT250
FM211300 16008KT P6SM SCT250
FM211800 18012G22KT P6SM BKN250

Example: see airport list